createdAt,value
2023-01-19T00:00:00.195Z,6.57
2023-01-19T00:02:26.680Z,6.93
2023-01-19T00:04:53.210Z,6.93
2023-01-19T00:07:19.636Z,7.17
2023-01-19T00:09:46.164Z,7.20
2023-01-19T00:12:12.603Z,10.83
2023-01-19T00:14:39.007Z,11.23
2023-01-19T00:17:05.507Z,11.23
2023-01-19T00:19:31.939Z,12.10
2023-01-19T00:21:58.377Z,12.50
2023-01-19T00:24:24.823Z,12.17
2023-01-19T00:26:51.246Z,13.00
2023-01-19T00:29:17.645Z,12.40
2023-01-19T00:31:44.699Z,12.20
2023-01-19T00:34:11.150Z,11.27
2023-01-19T00:36:37.623Z,11.63
2023-01-19T00:39:04.271Z,12.50
2023-01-19T00:41:50.953Z,13.20
2023-01-19T00:44:17.416Z,13.77
2023-01-19T00:46:43.823Z,14.13
2023-01-19T00:49:10.543Z,13.40
2023-01-19T00:51:37.555Z,13.30
2023-01-19T00:54:05.052Z,12.90
2023-01-19T00:56:32.117Z,11.93
2023-01-19T00:58:58.687Z,10.33
2023-01-19T01:01:45.048Z,9.33
2023-01-19T01:04:13.680Z,8.30
2023-01-19T01:06:40.192Z,8.03
2023-01-19T01:09:12.027Z,8.37
2023-01-19T01:11:40.049Z,8.53
2023-01-19T01:14:06.480Z,7.93
2023-01-19T01:16:33.034Z,9.13
2023-01-19T01:18:59.611Z,9.27
2023-01-19T01:21:26.133Z,9.17
2023-01-19T01:23:52.563Z,8.40
2023-01-19T01:26:18.997Z,8.87
2023-01-19T01:28:45.444Z,9.40
2023-01-19T01:31:11.885Z,8.93
2023-01-19T01:33:39.824Z,9.27
2023-01-19T01:36:08.098Z,10.07
2023-01-19T01:38:34.640Z,10.93
2023-01-19T01:41:01.174Z,11.37
2023-01-19T01:43:46.574Z,11.83
2023-01-19T01:46:15.666Z,11.40
2023-01-19T01:48:44.636Z,11.53
2023-01-19T01:51:24.723Z,10.83
2023-01-19T01:54:09.748Z,12.13
2023-01-19T01:56:38.137Z,12.70
2023-01-19T01:59:06.412Z,14.03
2023-01-19T02:01:51.541Z,14.30
2023-01-19T02:04:18.605Z,13.50
2023-01-19T02:07:04.033Z,12.23
2023-01-19T02:09:51.867Z,10.53
2023-01-19T02:12:37.219Z,10.83
2023-01-19T02:15:03.816Z,10.00
2023-01-19T02:17:30.244Z,8.60
2023-01-19T02:19:58.148Z,9.17
2023-01-19T02:22:38.535Z,9.63
2023-01-19T02:25:05.545Z,9.43
2023-01-19T02:27:32.363Z,8.63
2023-01-19T02:29:59.505Z,7.00
2023-01-19T02:32:26.182Z,6.70
2023-01-19T02:34:53.374Z,6.60
2023-01-19T02:37:20.597Z,6.57
2023-01-19T02:39:47.037Z,7.27
2023-01-19T02:42:15.612Z,6.60
2023-01-19T02:44:43.760Z,6.03
2023-01-19T02:47:10.253Z,6.87
2023-01-19T02:49:36.676Z,7.00
2023-01-19T02:52:04.286Z,6.50
2023-01-19T02:54:37.950Z,5.63
2023-01-19T02:57:11.235Z,5.63
2023-01-19T02:59:56.370Z,5.57
2023-01-19T03:02:25.830Z,5.43
2023-01-19T03:04:56.485Z,5.27
2023-01-19T03:07:45.410Z,5.63
2023-01-19T03:10:29.098Z,5.80
2023-01-19T03:12:55.539Z,4.50
2023-01-19T03:15:26.616Z,4.10
2023-01-19T03:17:53.513Z,4.87
2023-01-19T03:20:22.727Z,4.27
2023-01-19T03:22:51.719Z,5.10
2023-01-19T03:25:20.259Z,4.77
2023-01-19T03:27:47.209Z,3.90
2023-01-19T03:30:18.612Z,4.30
2023-01-19T03:32:48.402Z,4.30
2023-01-19T03:35:16.958Z,4.20
2023-01-19T03:37:44.955Z,4.70
2023-01-19T03:40:11.960Z,6.00
2023-01-19T03:42:39.067Z,6.43
2023-01-19T03:45:05.881Z,6.67
2023-01-19T03:47:32.363Z,6.93
2023-01-19T03:50:01.769Z,7.77
2023-01-19T03:52:29.151Z,7.60
2023-01-19T03:54:56.074Z,7.17
2023-01-19T03:57:22.483Z,7.33
2023-01-19T03:59:49.574Z,7.83
2023-01-19T04:02:16.145Z,8.33
2023-01-19T04:04:42.703Z,9.50
2023-01-19T04:07:09.821Z,11.03
2023-01-19T04:09:36.445Z,10.87
2023-01-19T04:12:03.842Z,9.40
2023-01-19T04:14:30.313Z,6.63
2023-01-19T04:16:56.800Z,4.60
2023-01-19T04:19:23.780Z,7.17
2023-01-19T04:21:50.883Z,4.60
2023-01-19T04:24:17.628Z,5.37
2023-01-19T04:26:44.097Z,3.97
2023-01-19T04:29:10.547Z,4.17
2023-01-19T04:31:37.530Z,4.43
2023-01-19T04:34:04.158Z,3.93
2023-01-19T04:36:31.339Z,3.10
2023-01-19T04:38:57.828Z,3.30
2023-01-19T04:41:24.309Z,3.07
2023-01-19T04:43:50.762Z,3.13
2023-01-19T04:46:17.273Z,3.70
2023-01-19T04:48:43.738Z,3.20
2023-01-19T04:51:10.167Z,3.53
2023-01-19T04:53:36.725Z,3.70
2023-01-19T04:56:03.192Z,4.50
2023-01-19T04:58:29.596Z,5.13
2023-01-19T05:00:56.052Z,6.00
2023-01-19T05:03:23.199Z,5.47
2023-01-19T05:05:50.823Z,7.90
2023-01-19T05:08:17.337Z,9.47
2023-01-19T05:10:43.757Z,10.47
2023-01-19T05:13:10.173Z,8.07
2023-01-19T05:15:36.616Z,8.23
2023-01-19T05:18:03.178Z,6.00
2023-01-19T05:20:29.646Z,5.50
2023-01-19T05:22:56.098Z,5.93
2023-01-19T05:25:22.553Z,6.67
2023-01-19T05:27:48.986Z,6.27
2023-01-19T05:30:15.677Z,6.40
2023-01-19T05:32:42.126Z,5.67
2023-01-19T05:35:08.818Z,16.70
2023-01-19T05:37:35.326Z,12.63
2023-01-19T05:40:01.820Z,6.30
2023-01-19T05:42:28.254Z,11.77
2023-01-19T05:44:54.825Z,6.17
2023-01-19T05:47:21.254Z,7.80
2023-01-19T05:49:47.698Z,7.60
2023-01-19T05:52:14.969Z,3.83
2023-01-19T05:54:41.440Z,3.63
2023-01-19T05:57:08.088Z,3.90
2023-01-19T05:59:34.642Z,3.30
2023-01-19T06:02:01.188Z,3.90
2023-01-19T06:04:27.671Z,7.13
2023-01-19T06:06:54.121Z,3.93
2023-01-19T06:09:20.570Z,4.90
2023-01-19T06:11:47.508Z,5.23
2023-01-19T06:14:14.027Z,5.07
2023-01-19T06:16:40.596Z,4.73
2023-01-19T06:19:07.148Z,4.37
2023-01-19T06:21:34.381Z,7.03
2023-01-19T06:24:00.853Z,4.20
2023-01-19T06:26:27.328Z,5.10
2023-01-19T06:28:53.766Z,7.50
2023-01-19T06:31:20.243Z,7.43
2023-01-19T06:33:46.848Z,6.00
2023-01-19T06:36:13.592Z,6.63
2023-01-19T06:38:40.339Z,7.77
2023-01-19T06:41:06.768Z,6.77
2023-01-19T06:43:33.297Z,6.23
2023-01-19T06:46:00.751Z,6.10
2023-01-19T06:48:27.311Z,7.00
2023-01-19T06:50:53.787Z,6.20
2023-01-19T06:53:22.253Z,7.40
2023-01-19T06:55:48.782Z,6.30
2023-01-19T06:58:16.246Z,10.27
2023-01-19T07:00:43.230Z,8.00
2023-01-19T07:03:18.107Z,7.83
2023-01-19T07:05:44.614Z,7.60
2023-01-19T07:08:11.136Z,6.53
2023-01-19T07:11:24.705Z,6.50
2023-01-19T07:13:24.035Z,6.60
2023-01-19T07:15:50.565Z,7.57
2023-01-19T07:18:16.981Z,7.50
2023-01-19T07:20:45.914Z,8.17
2023-01-19T07:23:12.365Z,16.80
2023-01-19T07:25:39.211Z,24.33
2023-01-19T07:28:05.607Z,25.57
2023-01-19T07:30:32.153Z,20.87
2023-01-19T07:32:59.221Z,18.70
2023-01-19T07:35:25.996Z,20.83
2023-01-19T07:37:52.574Z,21.63
2023-01-19T07:40:19.110Z,23.57
2023-01-19T07:42:46.631Z,26.00
2023-01-19T07:45:14.254Z,32.00
2023-01-19T07:47:42.560Z,29.30
2023-01-19T07:50:09.471Z,26.43
2023-01-19T07:52:35.959Z,93.83
2023-01-19T07:55:02.448Z,67.87
2023-01-19T07:57:29.730Z,86.43
2023-01-19T07:59:56.235Z,24.90
2023-01-19T08:02:22.797Z,18.83
2023-01-19T08:04:49.457Z,16.43
2023-01-19T08:07:15.958Z,16.63
2023-01-19T08:09:42.368Z,14.63
2023-01-19T08:12:08.799Z,14.93
2023-01-19T08:14:35.325Z,16.13
2023-01-19T08:17:02.353Z,15.97
2023-01-19T08:19:29.127Z,15.53
2023-01-19T08:21:56.518Z,16.97
2023-01-19T08:24:25.402Z,15.63
2023-01-19T08:26:57.725Z,17.30
2023-01-19T08:29:24.291Z,39.73
2023-01-19T08:31:50.840Z,80.00
2023-01-19T08:34:17.432Z,30.20
2023-01-19T08:36:43.842Z,18.53
2023-01-19T08:39:12.223Z,18.63
2023-01-19T08:41:38.699Z,17.23
2023-01-19T08:44:05.176Z,18.30
2023-01-19T08:46:31.710Z,18.73
2023-01-19T08:48:58.237Z,18.53
2023-01-19T08:51:24.650Z,17.27
2023-01-19T08:53:51.190Z,14.57
2023-01-19T08:56:20.355Z,10.30
2023-01-19T08:58:53.658Z,14.33
2023-01-19T09:01:30.048Z,15.63
2023-01-19T09:03:56.524Z,19.30
2023-01-19T09:06:25.215Z,20.33
2023-01-19T09:08:51.745Z,19.80
2023-01-19T09:11:18.728Z,18.50
2023-01-19T09:13:45.252Z,24.33
2023-01-19T09:16:13.473Z,17.53
2023-01-19T09:18:40.243Z,14.37
2023-01-19T09:21:06.862Z,12.77
2023-01-19T09:23:33.340Z,12.13
2023-01-19T09:26:03.382Z,11.97
2023-01-19T09:28:29.877Z,12.17
2023-01-19T09:30:56.571Z,13.20
2023-01-19T09:33:23.320Z,12.80
2023-01-19T09:35:50.763Z,13.70
2023-01-19T09:38:17.878Z,12.70
2023-01-19T09:40:47.283Z,12.10
2023-01-19T09:43:18.088Z,12.10
2023-01-19T09:45:46.100Z,11.90
2023-01-19T09:48:26.033Z,12.13
2023-01-19T09:50:54.299Z,11.80
2023-01-19T09:53:24.755Z,11.83
2023-01-19T09:55:51.303Z,11.17
2023-01-19T09:58:19.296Z,11.17
2023-01-19T10:00:49.124Z,11.60
2023-01-19T10:03:16.641Z,11.53
2023-01-19T10:05:44.779Z,13.83
2023-01-19T10:08:26.837Z,13.07
2023-01-19T10:10:54.597Z,13.47
2023-01-19T10:13:21.026Z,14.97
2023-01-19T10:16:06.241Z,15.57
2023-01-19T10:18:37.045Z,13.73
2023-01-19T10:21:12.163Z,13.87
2023-01-19T10:23:44.130Z,11.87
2023-01-19T10:26:16.077Z,10.83
2023-01-19T10:28:43.336Z,8.63
2023-01-19T10:31:10.742Z,7.60
2023-01-19T10:33:38.362Z,6.50
2023-01-19T10:36:05.962Z,5.27
2023-01-19T10:38:34.033Z,3.90
2023-01-19T10:41:04.962Z,3.53
2023-01-19T10:43:34.539Z,3.80
2023-01-19T10:46:02.123Z,3.80
2023-01-19T10:48:36.253Z,5.00
2023-01-19T10:51:03.905Z,4.67
2023-01-19T10:53:30.368Z,3.83
2023-01-19T10:56:11.714Z,4.00
2023-01-19T10:58:38.190Z,3.60
2023-01-19T11:01:13.864Z,5.50
2023-01-19T11:03:40.400Z,3.00
2023-01-19T11:06:27.022Z,3.20
2023-01-19T11:08:54.252Z,2.80
2023-01-19T11:11:21.582Z,2.67
2023-01-19T11:14:02.949Z,3.20
2023-01-19T11:16:30.805Z,2.83
2023-01-19T11:18:57.912Z,3.00
2023-01-19T11:21:26.080Z,3.00
2023-01-19T11:24:05.379Z,3.20
2023-01-19T11:26:42.858Z,2.90
2023-01-19T11:29:18.497Z,2.77
2023-01-19T11:31:44.959Z,4.40
2023-01-19T11:34:30.384Z,3.80
2023-01-19T11:37:25.203Z,3.53
2023-01-19T11:39:52.991Z,3.77
2023-01-19T11:42:20.242Z,3.80
2023-01-19T11:44:58.323Z,4.20
2023-01-19T11:47:30.511Z,5.53
2023-01-19T11:50:06.240Z,5.30
2023-01-19T11:52:43.099Z,6.97
2023-01-19T11:55:33.026Z,6.23
2023-01-19T11:58:00.049Z,6.30
2023-01-19T12:00:29.463Z,6.27
2023-01-19T12:03:00.190Z,6.60
2023-01-19T12:05:29.948Z,7.10
2023-01-19T12:07:58.036Z,5.07
2023-01-19T12:10:27.028Z,5.77
2023-01-19T12:12:53.774Z,4.73
2023-01-19T12:15:26.025Z,5.00
2023-01-19T12:17:54.347Z,6.50
2023-01-19T12:20:35.865Z,6.27
2023-01-19T12:23:09.251Z,4.90
2023-01-19T12:25:47.214Z,4.53
2023-01-19T12:28:14.460Z,4.20
2023-01-19T12:30:41.260Z,3.87
2023-01-19T12:33:26.278Z,3.73
2023-01-19T12:35:56.435Z,3.33
2023-01-19T12:38:31.812Z,3.93
2023-01-19T12:41:18.474Z,7.00
2023-01-19T12:43:45.292Z,5.70
2023-01-19T12:46:27.186Z,3.10
2023-01-19T12:48:54.055Z,3.77
2023-01-19T12:51:26.541Z,3.60
2023-01-19T12:53:58.096Z,12.97
2023-01-19T12:56:30.460Z,4.00
2023-01-19T12:58:57.255Z,3.57
2023-01-19T13:01:25.007Z,2.83
2023-01-19T13:03:58.850Z,2.40
2023-01-19T13:06:44.164Z,2.70
2023-01-19T13:09:29.782Z,3.53
2023-01-19T13:12:17.889Z,3.80
2023-01-19T13:14:44.504Z,3.87
2023-01-19T13:17:26.022Z,3.70
2023-01-19T13:19:54.896Z,4.37
2023-01-19T13:22:40.208Z,5.10
2023-01-19T13:25:10.422Z,6.47
2023-01-19T13:27:37.460Z,5.33
2023-01-19T13:30:09.814Z,6.90
2023-01-19T13:32:36.333Z,5.93
2023-01-19T13:35:04.302Z,5.47
2023-01-19T13:37:41.738Z,6.17
2023-01-19T13:40:15.755Z,6.00
2023-01-19T13:42:42.820Z,4.43
2023-01-19T13:45:17.665Z,4.23
2023-01-19T13:47:46.441Z,5.17
2023-01-19T13:50:19.360Z,5.40
2023-01-19T13:52:46.175Z,5.40
2023-01-19T13:55:14.264Z,8.70
2023-01-19T13:57:41.768Z,6.13
2023-01-19T14:00:17.241Z,5.43
2023-01-19T14:02:55.965Z,5.97
2023-01-19T14:05:22.704Z,4.60
2023-01-19T14:07:59.196Z,5.80
2023-01-19T14:10:25.885Z,4.53
2023-01-19T14:12:59.724Z,4.50
2023-01-19T14:15:26.676Z,5.17
2023-01-19T14:18:09.554Z,4.13
2023-01-19T14:20:38.789Z,4.80
2023-01-19T14:23:06.238Z,5.10
2023-01-19T14:25:33.795Z,5.20
2023-01-19T14:28:19.086Z,6.33
2023-01-19T14:30:59.309Z,6.17
2023-01-19T14:33:55.533Z,6.07
2023-01-19T14:36:26.508Z,6.80
2023-01-19T14:38:53.802Z,10.10
2023-01-19T14:41:40.652Z,9.60
2023-01-19T14:44:11.058Z,10.20
2023-01-19T14:46:38.011Z,9.07
2023-01-19T14:49:06.014Z,8.70
2023-01-19T14:51:32.553Z,42.67
2023-01-19T14:54:00.211Z,38.50
2023-01-19T14:56:28.391Z,13.93
2023-01-19T14:58:55.377Z,11.27
2023-01-19T15:01:22.091Z,13.13
2023-01-19T15:03:48.706Z,12.67
2023-01-19T15:06:19.427Z,13.20
2023-01-19T15:08:46.479Z,13.13
2023-01-19T15:11:21.284Z,12.73
2023-01-19T15:13:48.210Z,14.17
2023-01-19T15:16:14.995Z,14.50
2023-01-19T15:18:41.826Z,13.67
2023-01-19T15:21:12.042Z,14.00
2023-01-19T15:23:38.674Z,14.77
2023-01-19T15:26:05.320Z,15.57
2023-01-19T15:28:31.967Z,17.80
2023-01-19T15:30:59.467Z,20.97
2023-01-19T15:33:28.297Z,22.20
2023-01-19T15:35:54.932Z,24.30
2023-01-19T15:38:22.401Z,24.57
2023-01-19T15:40:51.688Z,23.30
2023-01-19T15:43:18.760Z,22.93
2023-01-19T15:45:51.349Z,20.50
2023-01-19T15:48:20.037Z,20.40
2023-01-19T15:50:47.923Z,18.07
2023-01-19T15:53:16.343Z,17.07
2023-01-19T15:55:43.293Z,16.60
2023-01-19T15:58:10.173Z,18.03
2023-01-19T16:00:36.882Z,17.27
2023-01-19T16:03:03.781Z,17.17
2023-01-19T16:05:42.609Z,17.17
2023-01-19T16:08:10.987Z,20.13
2023-01-19T16:10:37.592Z,19.23
2023-01-19T16:13:04.030Z,18.87
2023-01-19T16:15:30.900Z,19.57
2023-01-19T16:17:58.295Z,20.73
2023-01-19T16:20:25.321Z,19.80
2023-01-19T16:22:51.814Z,21.77
2023-01-19T16:25:18.256Z,21.67
2023-01-19T16:27:44.718Z,19.63
2023-01-19T16:30:12.392Z,29.07
2023-01-19T16:32:39.008Z,33.10
2023-01-19T16:35:05.742Z,58.43
2023-01-19T16:37:32.273Z,59.63
2023-01-19T16:39:58.797Z,57.83
2023-01-19T16:42:25.393Z,72.97
2023-01-19T16:44:51.983Z,85.57
2023-01-19T16:47:18.596Z,202.53
2023-01-19T16:49:45.199Z,87.33
2023-01-19T16:52:11.789Z,58.20
2023-01-19T16:54:40.524Z,64.00
2023-01-19T16:57:07.135Z,347.20
2023-01-19T16:59:33.651Z,518.90
2023-01-19T17:02:00.481Z,248.53
2023-01-19T17:04:27.405Z,95.33
2023-01-19T17:06:54.560Z,109.47
2023-01-19T17:09:21.283Z,107.23
2023-01-19T17:11:48.156Z,102.00
2023-01-19T17:14:16.432Z,108.07
2023-01-19T17:16:43.322Z,70.43
2023-01-19T17:19:13.169Z,389.90
2023-01-19T17:21:40.009Z,220.07
2023-01-19T17:24:07.058Z,191.07
2023-01-19T17:26:34.011Z,111.13
2023-01-19T17:29:01.898Z,83.83
2023-01-19T17:31:29.083Z,81.37
2023-01-19T17:33:56.196Z,80.57
2023-01-19T17:36:25.408Z,60.50
2023-01-19T17:38:52.716Z,55.13
2023-01-19T17:41:21.026Z,40.03
2023-01-19T17:43:50.458Z,42.77
2023-01-19T17:46:19.237Z,46.03
2023-01-19T17:48:50.630Z,168.00
2023-01-19T17:51:17.401Z,121.47
2023-01-19T17:53:44.177Z,120.50
2023-01-19T17:56:14.885Z,104.13
2023-01-19T17:58:42.033Z,97.90
2023-01-19T18:01:29.628Z,80.63
2023-01-19T18:03:56.892Z,69.10
2023-01-19T18:06:23.697Z,77.70
2023-01-19T18:08:50.612Z,70.37
2023-01-19T18:11:18.386Z,51.93
2023-01-19T18:13:45.812Z,44.03
2023-01-19T18:16:14.350Z,42.27
2023-01-19T18:18:41.120Z,39.20
2023-01-19T18:21:09.941Z,40.60
2023-01-19T18:23:36.902Z,89.57
2023-01-19T18:26:05.383Z,114.97
2023-01-19T18:28:32.436Z,113.20
2023-01-19T18:30:59.599Z,118.40
2023-01-19T18:33:27.609Z,106.70
2023-01-19T18:35:54.827Z,87.33
2023-01-19T18:38:21.745Z,56.57
2023-01-19T18:40:48.349Z,59.20
2023-01-19T18:43:15.190Z,90.47
2023-01-19T18:45:42.154Z,136.63
2023-01-19T18:48:15.789Z,63.97
2023-01-19T18:50:46.561Z,64.77
2023-01-19T18:53:13.491Z,60.97
2023-01-19T18:55:40.145Z,69.97
2023-01-19T18:58:07.258Z,69.60
2023-01-19T19:00:34.033Z,71.23
2023-01-19T19:03:01.465Z,73.23
2023-01-19T19:05:28.394Z,92.83
2023-01-19T19:07:55.212Z,126.00
2023-01-19T19:10:21.803Z,94.10
2023-01-19T19:12:49.131Z,74.33
2023-01-19T19:15:18.028Z,75.83
2023-01-19T19:17:44.622Z,69.80
2023-01-19T19:20:11.910Z,47.73
2023-01-19T19:22:38.917Z,43.07
2023-01-19T19:25:05.957Z,43.73
2023-01-19T19:27:32.841Z,48.50
2023-01-19T19:30:00.967Z,79.23
2023-01-19T19:32:27.737Z,87.30
2023-01-19T19:34:56.543Z,83.47
2023-01-19T19:37:23.413Z,148.17
2023-01-19T19:39:50.110Z,126.93
2023-01-19T19:42:16.890Z,107.23
2023-01-19T19:44:43.698Z,96.87
2023-01-19T19:47:10.723Z,70.57
2023-01-19T19:49:37.425Z,70.90
2023-01-19T19:52:04.207Z,69.23
2023-01-19T19:54:30.855Z,103.33
2023-01-19T19:56:57.684Z,126.07
2023-01-19T19:59:24.548Z,100.13
2023-01-19T20:01:53.765Z,91.70
2023-01-19T20:04:22.853Z,90.17
2023-01-19T20:06:49.898Z,94.03
2023-01-19T20:09:16.990Z,86.73
2023-01-19T20:11:44.963Z,87.43
2023-01-19T20:14:12.667Z,85.33
2023-01-19T20:16:40.536Z,79.37
2023-01-19T20:19:07.511Z,66.90
2023-01-19T20:21:36.043Z,74.07
2023-01-19T20:24:04.793Z,70.83
2023-01-19T20:26:33.033Z,66.10
2023-01-19T20:29:00.793Z,60.17
2023-01-19T20:31:28.887Z,58.83
2023-01-19T20:33:56.665Z,51.63
2023-01-19T20:36:24.594Z,41.17
2023-01-19T20:38:54.753Z,43.13
2023-01-19T20:41:22.156Z,42.57
2023-01-19T20:43:49.112Z,42.20
2023-01-19T20:46:16.255Z,37.63
2023-01-19T20:48:43.022Z,50.20
2023-01-19T20:51:11.109Z,52.00
2023-01-19T20:53:39.063Z,42.37
2023-01-19T20:56:11.438Z,38.07
2023-01-19T20:58:38.685Z,50.10
2023-01-19T21:01:19.480Z,59.27
2023-01-19T21:03:46.261Z,63.30
2023-01-19T21:06:13.625Z,58.77
2023-01-19T21:08:40.875Z,43.00
2023-01-19T21:11:08.181Z,35.97
2023-01-19T21:13:35.421Z,32.90
2023-01-19T21:16:02.326Z,32.90
2023-01-19T21:18:29.124Z,32.80
2023-01-19T21:20:57.556Z,35.63
2023-01-19T21:23:24.725Z,35.37
2023-01-19T21:25:52.360Z,34.53
2023-01-19T21:28:19.751Z,36.10
2023-01-19T21:30:46.752Z,37.93
2023-01-19T21:33:13.672Z,41.00
2023-01-19T21:35:40.380Z,39.03
2023-01-19T21:38:07.293Z,38.87
2023-01-19T21:40:33.737Z,38.23
2023-01-19T21:43:00.180Z,37.77
2023-01-19T21:45:26.639Z,35.00
2023-01-19T21:47:53.308Z,34.97
2023-01-19T21:50:19.722Z,34.27
2023-01-19T21:52:46.189Z,33.23
2023-01-19T21:55:13.030Z,33.73
2023-01-19T21:57:39.523Z,35.53
2023-01-19T22:00:06.542Z,37.60
2023-01-19T22:02:38.524Z,44.13
2023-01-19T22:05:06.582Z,35.40
2023-01-19T22:07:33.189Z,34.13
2023-01-19T22:09:59.774Z,39.60
2023-01-19T22:12:26.243Z,48.90
2023-01-19T22:14:52.692Z,50.40
2023-01-19T22:17:20.891Z,50.03
2023-01-19T22:19:48.018Z,45.90
2023-01-19T22:22:17.590Z,42.57
2023-01-19T22:24:46.623Z,40.13
2023-01-19T22:27:13.465Z,38.03
2023-01-19T22:29:39.902Z,35.80
2023-01-19T22:32:06.518Z,38.67
2023-01-19T22:34:33.065Z,37.73
2023-01-19T22:36:59.705Z,37.40
2023-01-19T22:39:26.321Z,34.20
2023-01-19T22:41:52.758Z,37.80
2023-01-19T22:44:22.952Z,35.10
2023-01-19T22:46:50.334Z,37.87
2023-01-19T22:49:17.758Z,49.47
2023-01-19T22:51:44.675Z,49.97
2023-01-19T22:54:11.381Z,39.40
2023-01-19T22:56:41.466Z,34.90
2023-01-19T22:59:08.012Z,36.07
2023-01-19T23:01:40.134Z,39.77
2023-01-19T23:04:07.250Z,45.53
2023-01-19T23:06:34.840Z,44.30
2023-01-19T23:09:02.739Z,45.10
2023-01-19T23:11:33.662Z,50.80
2023-01-19T23:14:01.592Z,49.90
2023-01-19T23:16:28.392Z,47.63
2023-01-19T23:18:55.836Z,45.93
2023-01-19T23:21:22.969Z,44.00
2023-01-19T23:23:52.579Z,41.83
2023-01-19T23:26:19.431Z,22.53
2023-01-19T23:28:46.533Z,23.47
2023-01-19T23:31:16.835Z,19.47
2023-01-19T23:33:44.256Z,18.60
2023-01-19T23:36:11.835Z,16.90
2023-01-19T23:38:38.498Z,21.97
2023-01-19T23:41:04.994Z,19.30
2023-01-19T23:43:31.448Z,20.80
2023-01-19T23:46:01.969Z,21.93
2023-01-19T23:48:30.732Z,22.07
2023-01-19T23:50:57.186Z,21.13
2023-01-19T23:53:23.645Z,21.37
2023-01-19T23:55:50.049Z,18.17
2023-01-19T23:58:16.505Z,18.83
